CheckWX is a tool to help pilots better visualize weather data.  It is not intended as a substitute for an official pre-flight weather briefing.

02:57:16 UTC

KGSO TAF
Piedmont Triad International Airport
Greensboro, North Carolina, USA
KGSO 172321Z 1800/1824 13005KT P6SM BKN250 FM180900 13003KT P6SM OVC030 FM181300 16003KT P6SM OVC015 FM181700 21006KT P6SM -SHRA OVC008

Feb-18@
00:00 UTC

Feb-18 @ 00:00 UTC

Feb-18@
09:00 UTC

Feb-18 @ 09:00 UTC

KGSO 172321Z 1800/1824 13005KT P6SM BKN250
Wind
  • 130° at 5 KTS
Cloud Levels
  • Broken at 25,000' AGL

Feb-18@
09:00 UTC

Feb-18 @ 09:00 UTC

Feb-18@
13:00 UTC

Feb-18 @ 13:00 UTC

FM180900 13003KT P6SM OVC030

From

From Standard forecast or significant change

Wind
  • 130° at 3 KTS
Cloud Levels
  • Overcast at 3,000' AGL

Feb-18@
13:00 UTC

Feb-18 @ 13:00 UTC

Feb-18@
17:00 UTC

Feb-18 @ 17:00 UTC

FM181300 16003KT P6SM OVC015

From

From Standard forecast or significant change

Wind
  • 160° at 3 KTS
Cloud Levels
  • Overcast at 1,500' AGL

Feb-18@
17:00 UTC

Feb-18 @ 17:00 UTC

Feb-19@
00:00 UTC

Feb-19 @ 00:00 UTC

FM181700 21006KT P6SM -SHRA OVC008

From

From Standard forecast or significant change

Wind
  • 210° at 6 KTS
Conditions
Light Rain
Cloud Levels
  • Overcast at 800' AGL